Terminal Aerodrome Forecast
Issued by NWS

Home | Current Version | Previous Version | Graphics & Text | Print | Product List | Glossary On
Versions: 1 2 3 4 5 6 7 8 9 10 11 12 13 14 15 16 17 18
000
FTUS43 KMPX 242300
TAFRNH
TAF
KRNH 242339Z 2500/2524 30006KT P6SM OVC015
      TEMPO 2502/2506 OVC008
     FM250600 23006KT P6SM OVC012
     FM251200 20006KT 6SM BR SCT015 OVC040
     FM251800 18004KT P6SM BKN030=

USA.gov is the U.S. government's official web portal to all federal, state and local government web resources and services.